EPKT

Katowice International Airport

Katowice, Poland
METAR EPKT 190030Z 03002KT 6000 -SN OVC011 M01/M05 Q1019
Observed Flight Rules
Nov-19 @ 00:30 UTC (34 minutes ago) Marginal Visual Flight Rules
Wind Visibility Clouds Conditions
30° at 2 knots 6,003 meters
  • Overcast at 1,100' AGL
  • Light Snow
Temperatures Readings
Current -1°C / 30°F
Dewpoint -5°C / 23°F
Humidity 75%
Altimeter 30.09" Hg
Pressure 1019 hPa
Elevation 284
METAR EPKT 190030Z 03002KT 6000 -SN OVC011 M01/M05 Q1019
Observed Flight Rules
Nov-19 @ 00:30 UTC
(34 minutes ago)
MVFR
Wind Visibility
30° at 2 knots 6,003 meters
Clouds
  • Overcast at 1,100' AGL
Conditions
  • Light Snow
Temperature Dewpoint
-1°C / 30°F -5°C / 23°F
Humidity Altimeter Pressure
75% 30.09" Hg 1019 hPa